Barbosa Ferraz, Brazil
Current Conditions -  °F | °C
As of 9:00 AM on Monday 22 Dec 2014 (Local Time) from SBMG Reporting Station
Broken Clouds Broken Clouds  
Wind Chill: 73°   Ceiling: 800
Heat Index: 73°   Visibility: 6mi
Dew Point: 72°   Wind: 18mph
Humidity: 94%   Direction: 350°N
Pressure: 29.83"   Gusts: NA
Location:  24.03°S, 52.01°W
Report Text: SBMG 221100Z 35016KT 9999 SCT005 BKN008 BKN018 23/22 Q1010
Loading
Personal Weather Stations






























Interactive Weather Map New forecast layout! Learn more

10-Day Weather Forecast

Advertisements
Track Severe Weather on mobile